Portada
METAR-TAF:

METAR-TAF

Aeroports :

Trat, Tailàndia

latitud: 12-16-28N, longitud: 102-19-08E, altitud: 32 m

Observació

L'informe es va fer fa 11 minuts, a les 04:00 UTC
Vent 7 kt del Nord
Temperatura 31°C
Humitat 59%
Pressió 1013 hPa
Visibilitat: 7000 m
Escasses núvols a una alçada de 2000 ft

METAR: VTBO 210400Z 01007KT 7000 FEW020 31/22 Q1013

Hora: 11:11 (04:11 UTC)

Pronòstic

L'informe es va fer fa 5 hores i 11 minuts, a les 23:00 UTC
Pronòstic vàlid del 21 a les 00 UTC al 21 a les 24 UTC
Vent kt del Nord
Visibilitat: 5000 m
Escasses núvols a una alçada de 2000 ft
boirina
Evolucionant progressivament
l' 21 a les 02 UTC al 21 a les 04 UTC
Vent 8 kt del Nord/Nord-Est
Visibilitat: 8000 m
Evolucionant progressivament
l' 21 a les 14 UTC al 21 a les 16 UTC
Vent kt del Nord

TAF: VTBO 202300Z 2100/2124 00000KT 5000 BR FEW020 BECMG 2102/2104 03008KT 8000 NSW BECMG 2114/2116 00000KT

Observacions i pronòstics meteorològics de més de 4000 aeroports (METAR i TAF).

Les estacions disponibles són els punts grocs i vermells al mapa.

Posi el ratolí al punt desitjat per veure el nom de l'estació.

Feu clic per veure les observacions i els pronòstics meteorològics.

Per canviar el mapa: feu clic els botons verds amb una creu de color negre per apropar; al botó verd amb un guió per allunyar la imatge; o en les fletxes verdes per a mapes adjacents.


METAR-TAF: